createdAt,value
2018-02-23T00:02:01.786Z,91.10
2018-02-23T00:04:28.073Z,91.90
2018-02-23T00:06:54.329Z,91.10
2018-02-23T00:09:20.638Z,91.00
2018-02-23T00:11:46.894Z,91.80
2018-02-23T00:14:13.125Z,91.60
2018-02-23T00:16:39.457Z,91.50
2018-02-23T00:19:05.753Z,91.90
2018-02-23T00:21:32.795Z,92.20
2018-02-23T00:23:59.039Z,92.20
2018-02-23T00:26:25.280Z,91.90
2018-02-23T00:28:51.484Z,93.10
2018-02-23T00:31:17.688Z,91.50
2018-02-23T00:33:44.167Z,91.30
2018-02-23T00:36:10.509Z,91.70
2018-02-23T00:38:38.760Z,91.60
2018-02-23T00:41:05.390Z,91.40
2018-02-23T00:43:31.717Z,92.50
2018-02-23T00:45:58.398Z,91.80
2018-02-23T00:48:26.121Z,91.70
2018-02-23T00:50:52.822Z,91.70
2018-02-23T00:53:19.782Z,91.50
2018-02-23T00:55:46.175Z,91.50
2018-02-23T00:58:12.614Z,91.70
2018-02-23T01:00:38.929Z,93.20
2018-02-23T01:03:05.900Z,92.60
2018-02-23T01:05:33.084Z,93.10
2018-02-23T01:08:00.217Z,93.20
2018-02-23T01:10:26.999Z,93.20
2018-02-23T01:12:53.480Z,92.90
2018-02-23T01:15:19.677Z,93.60
2018-02-23T01:17:46.720Z,94.10
2018-02-23T01:20:13.702Z,93.90
2018-02-23T01:22:39.991Z,93.90
2018-02-23T01:25:06.321Z,94.20
2018-02-23T01:27:33.345Z,93.80
2018-02-23T01:29:59.896Z,93.80
2018-02-23T01:32:26.164Z,94.00
2018-02-23T01:34:52.395Z,94.00
2018-02-23T01:37:18.718Z,93.90
2018-02-23T01:39:44.948Z,93.90
2018-02-23T01:42:12.165Z,94.30
2018-02-23T01:44:39.278Z,94.30
2018-02-23T01:47:05.472Z,94.10
2018-02-23T01:49:32.085Z,94.00
2018-02-23T01:51:58.348Z,93.90
2018-02-23T01:54:24.573Z,94.30
2018-02-23T01:56:50.791Z,94.00
2018-02-23T01:59:16.978Z,93.50
2018-02-23T02:01:44.015Z,93.60
2018-02-23T02:04:10.205Z,93.60
2018-02-23T02:06:36.479Z,93.50
2018-02-23T02:09:02.745Z,93.00
2018-02-23T02:11:29.077Z,93.10
2018-02-23T02:13:55.308Z,93.00
2018-02-23T02:16:21.530Z,92.90
2018-02-23T02:18:47.747Z,93.40
2018-02-23T02:21:14.722Z,93.10
2018-02-23T02:23:40.944Z,93.10
2018-02-23T02:26:07.322Z,92.90
2018-02-23T02:28:33.546Z,92.80
2018-02-23T02:30:59.829Z,92.50
2018-02-23T02:33:26.084Z,92.50
2018-02-23T02:35:52.307Z,92.30
2018-02-23T02:38:18.557Z,93.20
2018-02-23T02:40:44.838Z,91.80
2018-02-23T02:43:11.116Z,92.80
2018-02-23T02:45:38.112Z,92.10
2018-02-23T02:48:04.352Z,92.10
2018-02-23T02:50:30.566Z,92.30
2018-02-23T02:52:56.799Z,92.00
2018-02-23T02:55:23.050Z,92.20
2018-02-23T02:57:49.295Z,92.20
2018-02-23T03:00:15.501Z,92.70
2018-02-23T03:02:41.734Z,92.60
2018-02-23T03:05:07.964Z,93.20
2018-02-23T03:07:34.172Z,93.30
2018-02-23T03:10:00.525Z,93.10
2018-02-23T03:12:26.830Z,93.10
2018-02-23T03:14:53.062Z,92.70
2018-02-23T03:17:19.276Z,93.30
2018-02-23T03:19:45.474Z,93.10
2018-02-23T03:22:11.713Z,92.90
2018-02-23T03:24:38.063Z,94.00
2018-02-23T03:27:04.292Z,93.80
2018-02-23T03:29:30.548Z,93.80
2018-02-23T03:31:56.776Z,93.60
2018-02-23T03:34:23.050Z,93.50
2018-02-23T03:36:50.021Z,93.90
2018-02-23T03:39:16.243Z,94.00
2018-02-23T03:41:42.451Z,93.90
2018-02-23T03:44:09.472Z,95.00
2018-02-23T03:46:35.693Z,95.00
2018-02-23T03:49:02.653Z,94.60
2018-02-23T03:51:29.630Z,94.50
2018-02-23T03:53:56.565Z,95.20
2018-02-23T03:56:23.536Z,95.50
2018-02-23T03:58:49.740Z,95.40
2018-02-23T04:01:15.994Z,95.20
2018-02-23T04:03:42.268Z,95.60
2018-02-23T04:06:08.574Z,95.70
2018-02-23T04:08:35.595Z,96.30
2018-02-23T04:11:01.814Z,96.30
2018-02-23T04:13:28.198Z,95.80
2018-02-23T04:15:54.400Z,95.80
2018-02-23T04:18:20.687Z,95.90
2018-02-23T04:20:47.802Z,96.00
2018-02-23T04:23:14.187Z,96.00
2018-02-23T04:25:40.414Z,95.90
2018-02-23T04:28:06.785Z,96.10
2018-02-23T04:30:33.634Z,96.30
2018-02-23T04:32:59.848Z,96.40
2018-02-23T04:35:26.100Z,96.50
2018-02-23T04:37:52.314Z,96.70
2018-02-23T04:40:25.820Z,96.80
2018-02-23T04:42:52.051Z,96.70
2018-02-23T04:45:18.283Z,96.70
2018-02-23T04:47:44.510Z,96.80
2018-02-23T04:50:10.766Z,96.60
2018-02-23T04:52:37.705Z,96.60
2018-02-23T04:55:04.681Z,96.40
2018-02-23T04:57:30.885Z,96.30
2018-02-23T04:59:57.181Z,96.80
2018-02-23T05:02:23.512Z,96.90
2018-02-23T05:04:49.748Z,97.20
2018-02-23T05:07:16.709Z,97.30
2018-02-23T05:09:43.004Z,97.10
2018-02-23T05:12:09.298Z,97.40
2018-02-23T05:14:35.513Z,97.10
2018-02-23T05:17:01.753Z,97.50
2018-02-23T05:19:28.026Z,97.40
2018-02-23T05:21:54.550Z,97.30
2018-02-23T05:24:20.761Z,97.40
2018-02-23T05:26:46.981Z,97.80
2018-02-23T05:29:13.235Z,97.70
2018-02-23T05:31:39.452Z,97.20
2018-02-23T05:34:05.640Z,97.60
2018-02-23T05:36:31.899Z,97.20
2018-02-23T05:38:58.107Z,97.40
2018-02-23T05:41:24.582Z,97.50
2018-02-23T05:43:51.579Z,97.60
2018-02-23T05:46:17.808Z,97.60
2018-02-23T05:48:44.077Z,97.60
2018-02-23T05:51:10.474Z,97.40
2018-02-23T05:53:36.712Z,97.50
2018-02-23T05:56:02.984Z,97.40
2018-02-23T05:58:29.216Z,97.60
2018-02-23T06:00:56.210Z,97.90
2018-02-23T06:03:22.497Z,97.80
2018-02-23T06:05:49.437Z,97.80
2018-02-23T06:08:16.463Z,97.60
2018-02-23T06:10:44.741Z,97.60
2018-02-23T06:13:10.961Z,98.30
2018-02-23T06:15:43.201Z,98.00
2018-02-23T06:18:09.447Z,98.00
2018-02-23T06:20:35.644Z,97.90
2018-02-23T06:23:01.892Z,98.00
2018-02-23T06:25:28.120Z,98.00
2018-02-23T06:27:54.340Z,97.90
2018-02-23T06:30:20.593Z,98.50
2018-02-23T06:32:47.006Z,98.00
2018-02-23T06:35:13.203Z,98.10
2018-02-23T06:37:40.174Z,98.30
2018-02-23T06:40:06.488Z,98.30
2018-02-23T06:42:32.722Z,98.00
2018-02-23T06:44:58.933Z,98.20
2018-02-23T06:47:25.920Z,98.20
2018-02-23T06:49:52.337Z,98.10
2018-02-23T06:52:18.553Z,98.00
2018-02-23T06:54:44.853Z,98.50
2018-02-23T06:57:11.836Z,98.80
2018-02-23T06:59:38.036Z,98.70
2018-02-23T07:02:05.688Z,98.20
2018-02-23T07:04:32.640Z,98.50
2018-02-23T07:06:59.598Z,97.90
2018-02-23T07:09:25.797Z,97.90
2018-02-23T07:11:52.825Z,97.60
2018-02-23T07:14:19.776Z,97.60
2018-02-23T07:16:46.767Z,97.90
2018-02-23T07:19:12.952Z,97.90
2018-02-23T07:21:39.885Z,97.90
2018-02-23T07:24:06.292Z,97.80
2018-02-23T07:26:33.277Z,97.70
2018-02-23T07:28:59.704Z,97.50
2018-02-23T07:31:26.665Z,97.80
2018-02-23T07:33:53.638Z,97.70
2018-02-23T07:36:20.482Z,97.70
2018-02-23T07:38:46.762Z,97.70
2018-02-23T07:41:13.727Z,97.50
2018-02-23T07:43:40.668Z,97.40
2018-02-23T07:46:07.682Z,97.70
2018-02-23T07:48:33.892Z,97.60
2018-02-23T07:51:00.131Z,97.30
2018-02-23T07:53:26.433Z,97.60
2018-02-23T07:55:52.689Z,96.80
2018-02-23T07:58:18.889Z,97.10
2018-02-23T08:00:45.121Z,97.00
2018-02-23T08:03:11.400Z,96.90
2018-02-23T08:05:38.431Z,96.90
2018-02-23T08:08:04.736Z,96.90
2018-02-23T08:10:31.992Z,96.40
2018-02-23T08:12:58.287Z,96.50
2018-02-23T08:15:24.710Z,96.60
2018-02-23T08:17:51.736Z,96.80
2018-02-23T08:20:17.960Z,96.80
2018-02-23T08:22:45.156Z,96.40
2018-02-23T08:25:11.404Z,96.50
2018-02-23T08:27:37.624Z,96.80
2018-02-23T08:30:03.996Z,96.60
2018-02-23T08:32:31.421Z,96.30
2018-02-23T08:34:57.663Z,96.20
2018-02-23T08:37:26.450Z,96.20
2018-02-23T08:39:53.597Z,96.10
2018-02-23T08:42:19.990Z,96.10
2018-02-23T08:44:46.279Z,96.00
2018-02-23T08:47:13.297Z,96.10
2018-02-23T08:49:39.825Z,95.90
2018-02-23T08:52:06.173Z,95.80
2018-02-23T08:54:32.509Z,95.50
2018-02-23T08:56:59.556Z,95.30
2018-02-23T08:59:26.560Z,95.30
2018-02-23T09:01:53.172Z,95.30
2018-02-23T09:04:20.035Z,95.60
2018-02-23T09:06:46.414Z,95.40
2018-02-23T09:09:13.259Z,95.30
2018-02-23T09:11:40.256Z,94.80
2018-02-23T09:14:06.498Z,94.50
2018-02-23T09:16:32.700Z,94.40
2018-02-23T09:18:58.958Z,94.00
2018-02-23T09:21:25.160Z,93.80
2018-02-23T09:23:51.489Z,94.00
2018-02-23T09:26:17.855Z,93.80
2018-02-23T09:28:44.080Z,94.30
2018-02-23T09:31:10.327Z,93.90
2018-02-23T09:33:48.836Z,93.50
2018-02-23T09:36:15.082Z,93.30
2018-02-23T09:38:41.276Z,92.90
2018-02-23T09:41:14.423Z,92.00
2018-02-23T09:43:40.762Z,91.90
2018-02-23T09:46:08.011Z,92.00
2018-02-23T09:48:35.087Z,91.90
2018-02-23T09:51:01.323Z,91.90
2018-02-23T09:53:28.069Z,91.90
2018-02-23T09:55:56.026Z,92.00
2018-02-23T09:58:22.468Z,91.20
2018-02-23T10:00:48.746Z,91.30
2018-02-23T10:03:15.029Z,91.00
2018-02-23T10:05:41.237Z,91.50
2018-02-23T10:08:07.478Z,90.90
2018-02-23T10:10:33.886Z,90.70
2018-02-23T10:13:00.344Z,90.10
2018-02-23T10:15:26.801Z,88.70
2018-02-23T10:17:53.097Z,88.30
2018-02-23T10:20:19.361Z,88.30
2018-02-23T10:22:45.952Z,89.30
2018-02-23T10:25:13.297Z,90.30
2018-02-23T10:27:39.500Z,90.10
2018-02-23T10:30:06.515Z,89.00
2018-02-23T10:32:32.767Z,89.00
2018-02-23T10:34:58.980Z,87.90
2018-02-23T10:37:25.221Z,84.60
2018-02-23T10:39:52.193Z,74.40
2018-02-23T10:42:19.263Z,70.60
2018-02-23T10:44:45.505Z,70.50
2018-02-23T10:47:11.871Z,63.50
2018-02-23T10:49:38.131Z,68.10
2018-02-23T10:52:05.251Z,62.50
2018-02-23T10:54:32.443Z,62.60
2018-02-23T10:57:00.501Z,60.80
2018-02-23T10:59:27.692Z,55.80
2018-02-23T11:01:53.937Z,57.00
2018-02-23T11:04:21.817Z,53.20
2018-02-23T11:06:48.181Z,53.60
2018-02-23T11:09:14.506Z,59.10
2018-02-23T11:11:41.240Z,63.60
2018-02-23T11:14:08.209Z,68.00
2018-02-23T11:16:34.449Z,66.10
2018-02-23T11:19:00.625Z,66.30
2018-02-23T11:21:27.651Z,69.20
2018-02-23T11:23:54.657Z,72.70
2018-02-23T11:26:20.974Z,72.50
2018-02-23T11:28:47.280Z,75.70
2018-02-23T11:31:13.729Z,77.00
2018-02-23T11:33:40.266Z,75.90
2018-02-23T11:36:06.502Z,76.30
2018-02-23T11:38:32.749Z,79.20
2018-02-23T11:40:59.058Z,78.10
2018-02-23T11:43:25.440Z,78.70
2018-02-23T11:45:51.669Z,77.80
2018-02-23T11:48:17.972Z,76.80
2018-02-23T11:50:44.174Z,77.50
2018-02-23T11:53:10.477Z,76.40
2018-02-23T11:55:37.456Z,77.50
2018-02-23T11:58:06.561Z,77.40
2018-02-23T12:00:33.093Z,78.00
2018-02-23T12:02:59.281Z,79.40
2018-02-23T12:05:26.251Z,73.00
2018-02-23T12:07:52.453Z,73.20
2018-02-23T12:10:18.688Z,73.50
2018-02-23T12:12:45.604Z,72.60
2018-02-23T12:15:11.827Z,73.50
2018-02-23T12:17:38.936Z,74.40
2018-02-23T12:20:05.261Z,75.40
2018-02-23T12:22:31.494Z,76.80
2018-02-23T12:24:57.725Z,73.70
2018-02-23T12:27:24.303Z,72.10
2018-02-23T12:29:50.593Z,74.30
2018-02-23T12:32:16.835Z,75.00
2018-02-23T12:34:43.402Z,66.10
2018-02-23T12:37:10.589Z,69.60
2018-02-23T12:39:36.942Z,69.50
2018-02-23T12:42:03.402Z,70.40
2018-02-23T12:44:29.697Z,70.30
2018-02-23T12:46:55.912Z,69.40
2018-02-23T12:49:22.153Z,70.70
2018-02-23T12:51:48.449Z,72.10
2018-02-23T12:54:15.410Z,75.00
2018-02-23T12:56:41.608Z,75.00
2018-02-23T12:59:08.656Z,74.20
2018-02-23T13:01:35.592Z,73.50
2018-02-23T13:04:01.821Z,74.00
2018-02-23T13:06:28.803Z,52.50
2018-02-23T13:08:55.026Z,52.70
2018-02-23T13:11:21.324Z,51.90
2018-02-23T13:13:54.377Z,54.20
2018-02-23T13:16:26.749Z,54.00
2018-02-23T13:18:53.072Z,57.50
2018-02-23T13:21:19.297Z,52.50
2018-02-23T13:23:45.503Z,59.40
2018-02-23T13:26:11.756Z,57.50
2018-02-23T13:28:44.007Z,56.00
2018-02-23T13:31:10.659Z,54.40
2018-02-23T13:33:36.972Z,57.70
2018-02-23T13:36:03.200Z,59.40
2018-02-23T13:38:29.403Z,61.20
2018-02-23T13:43:54.373Z,59.20
2018-02-23T13:46:20.621Z,58.70
2018-02-23T13:48:46.853Z,60.60
2018-02-23T13:51:13.079Z,63.70
2018-02-23T13:53:45.554Z,53.60
2018-02-23T13:56:11.804Z,57.80
2018-02-23T13:58:38.749Z,60.30
2018-02-23T14:01:05.981Z,62.70
2018-02-23T14:03:32.975Z,68.40
2018-02-23T14:06:03.048Z,68.50
2018-02-23T14:08:29.322Z,62.80
2018-02-23T14:10:55.606Z,63.30
2018-02-23T14:13:21.895Z,68.60
2018-02-23T14:15:48.166Z,68.30
2018-02-23T14:18:14.425Z,69.80
2018-02-23T14:20:40.825Z,73.20
2018-02-23T14:23:07.809Z,73.30
2018-02-23T14:25:34.026Z,73.40
2018-02-23T14:28:00.250Z,73.20
2018-02-23T14:30:27.266Z,72.30
2018-02-23T14:32:53.496Z,72.70
2018-02-23T14:35:19.847Z,72.60
2018-02-23T14:37:46.133Z,71.60
2018-02-23T14:40:12.352Z,72.00
2018-02-23T14:42:38.585Z,70.00
2018-02-23T14:45:04.783Z,69.20
2018-02-23T14:47:30.979Z,68.10
2018-02-23T14:52:55.979Z,71.10
2018-02-23T14:55:22.238Z,71.30
2018-02-23T14:57:48.494Z,72.60
2018-02-23T15:00:14.692Z,72.50
2018-02-23T15:02:40.935Z,70.90
2018-02-23T15:05:07.126Z,72.50
2018-02-23T15:07:34.312Z,76.20
2018-02-23T15:10:00.543Z,76.00
2018-02-23T15:12:26.773Z,73.70
2018-02-23T15:14:54.638Z,73.00
2018-02-23T15:17:20.920Z,71.40
2018-02-23T15:19:47.170Z,70.40
2018-02-23T15:22:13.372Z,67.90
2018-02-23T15:24:39.616Z,70.70
2018-02-23T15:27:06.767Z,67.20
2018-02-23T15:29:33.055Z,66.00
2018-02-23T15:32:11.493Z,67.50
2018-02-23T15:34:37.811Z,64.70
2018-02-23T15:37:04.357Z,70.40
2018-02-23T15:39:30.661Z,63.80
2018-02-23T15:41:56.886Z,63.70
2018-02-23T15:44:23.121Z,60.90
2018-02-23T15:46:49.603Z,60.00
2018-02-23T15:49:21.588Z,66.60
2018-02-23T15:51:51.845Z,65.40
2018-02-23T15:54:18.071Z,65.40
2018-02-23T15:56:44.301Z,67.70
2018-02-23T15:59:10.512Z,67.40
2018-02-23T16:01:36.755Z,67.60
2018-02-23T16:04:02.990Z,68.50
2018-02-23T16:06:29.980Z,70.70
2018-02-23T16:08:56.192Z,70.40
2018-02-23T16:11:22.638Z,69.10
2018-02-23T16:13:48.925Z,67.60
2018-02-23T16:16:15.869Z,70.70
2018-02-23T16:18:42.131Z,69.20
2018-02-23T16:21:09.191Z,70.70
2018-02-23T16:23:35.447Z,70.80
2018-02-23T16:26:01.777Z,71.30
2018-02-23T16:28:28.103Z,71.70
2018-02-23T16:30:54.567Z,71.60
2018-02-23T16:33:20.994Z,71.10
2018-02-23T16:35:47.318Z,70.30
2018-02-23T16:38:14.488Z,71.20
2018-02-23T16:40:40.726Z,71.20
2018-02-23T16:43:07.108Z,73.20
2018-02-23T16:45:33.556Z,71.70
2018-02-23T16:48:00.661Z,70.40
2018-02-23T16:50:26.941Z,70.40
2018-02-23T16:52:53.223Z,71.80
2018-02-23T16:55:19.523Z,72.50
2018-02-23T16:57:45.770Z,73.80
2018-02-23T17:00:11.989Z,72.40
2018-02-23T17:02:38.951Z,71.60
2018-02-23T17:05:06.024Z,71.60
2018-02-23T17:07:33.393Z,71.80
2018-02-23T17:09:59.656Z,71.80
2018-02-23T17:12:25.867Z,72.50
2018-02-23T17:14:52.148Z,74.00
2018-02-23T17:17:18.459Z,73.80
2018-02-23T17:19:44.719Z,73.70
2018-02-23T17:22:11.761Z,76.90
2018-02-23T17:24:39.458Z,77.70
2018-02-23T17:27:05.745Z,78.50
2018-02-23T17:29:33.184Z,74.60
2018-02-23T17:31:59.477Z,75.20
2018-02-23T17:34:25.703Z,75.80
2018-02-23T17:36:52.206Z,75.60
2018-02-23T17:39:19.175Z,76.20
2018-02-23T17:41:45.425Z,76.10
2018-02-23T17:44:11.679Z,75.40
2018-02-23T17:46:37.972Z,75.80
2018-02-23T17:49:04.262Z,78.20
2018-02-23T17:51:31.306Z,76.90
2018-02-23T17:53:57.730Z,76.60
2018-02-23T17:56:24.042Z,76.70
2018-02-23T17:58:50.349Z,77.00
2018-02-23T18:01:16.589Z,77.10
2018-02-23T18:03:42.832Z,77.60
2018-02-23T18:06:09.092Z,76.60
2018-02-23T18:08:36.218Z,77.80
2018-02-23T18:11:03.223Z,76.60
2018-02-23T18:13:29.417Z,76.60
2018-02-23T18:15:56.381Z,76.60
2018-02-23T18:18:23.331Z,77.70
2018-02-23T18:20:49.593Z,77.50
2018-02-23T18:23:15.882Z,77.10
2018-02-23T18:25:42.124Z,78.00
2018-02-23T18:28:08.372Z,77.60
2018-02-23T18:30:34.710Z,76.60
2018-02-23T18:33:01.096Z,79.90
2018-02-23T18:35:27.341Z,81.30
2018-02-23T18:37:53.622Z,79.70
2018-02-23T18:40:19.949Z,80.00
2018-02-23T18:42:46.262Z,82.50
2018-02-23T18:45:12.525Z,81.50
2018-02-23T18:47:39.511Z,83.90
2018-02-23T18:50:05.819Z,83.90
2018-02-23T18:52:32.899Z,84.10
2018-02-23T18:55:00.823Z,85.30
2018-02-23T18:57:28.717Z,85.30
2018-02-23T18:59:55.827Z,85.70
2018-02-23T19:02:23.281Z,86.70
2018-02-23T19:04:50.279Z,86.20
2018-02-23T19:07:17.518Z,86.00
2018-02-23T19:09:45.344Z,86.40
2018-02-23T19:12:12.857Z,86.00
2018-02-23T19:14:40.715Z,87.40
2018-02-23T19:17:07.768Z,87.40
2018-02-23T19:19:34.871Z,87.80
2018-02-23T19:22:01.985Z,89.30
2018-02-23T19:24:28.330Z,87.70
2018-02-23T19:26:55.688Z,90.10
2018-02-23T19:29:23.570Z,87.90
2018-02-23T19:31:50.257Z,89.10
2018-02-23T19:34:16.502Z,89.30
2018-02-23T19:36:42.758Z,91.00
2018-02-23T19:39:09.112Z,89.00
2018-02-23T19:41:36.106Z,88.60
2018-02-23T19:44:02.365Z,88.60
2018-02-23T19:46:29.342Z,90.00
2018-02-23T19:48:55.693Z,90.00
2018-02-23T19:51:21.969Z,88.60
2018-02-23T19:53:48.957Z,89.50
2018-02-23T19:56:15.201Z,89.60
2018-02-23T19:58:41.530Z,90.00
2018-02-23T20:01:07.836Z,88.40
2018-02-23T20:03:34.040Z,89.90
2018-02-23T20:06:01.013Z,88.30
2018-02-23T20:08:27.244Z,88.30
2018-02-23T20:10:53.485Z,88.10
2018-02-23T20:13:20.874Z,89.20
2018-02-23T20:15:47.838Z,87.50
2018-02-23T20:18:14.211Z,87.40
2018-02-23T20:20:41.868Z,89.70
2018-02-23T20:23:08.326Z,87.20
2018-02-23T20:25:34.861Z,87.70
2018-02-23T20:28:01.156Z,88.80
2018-02-23T20:30:27.576Z,88.60
2018-02-23T20:32:53.909Z,88.50
2018-02-23T20:35:21.313Z,90.70
2018-02-23T20:37:47.516Z,90.10
2018-02-23T20:40:14.070Z,88.80
2018-02-23T20:42:41.177Z,91.00
2018-02-23T20:45:09.011Z,90.00
2018-02-23T20:47:35.385Z,89.00
2018-02-23T20:50:01.957Z,89.90
2018-02-23T20:52:28.768Z,89.30
2018-02-23T20:54:57.822Z,88.50
2018-02-23T20:57:24.932Z,89.50
2018-02-23T20:59:51.314Z,88.80
2018-02-23T21:02:18.353Z,89.20
2018-02-23T21:04:46.915Z,89.20
2018-02-23T21:07:13.781Z,90.00
2018-02-23T21:09:40.844Z,89.00
2018-02-23T21:12:14.175Z,89.70
2018-02-23T21:14:40.569Z,90.00
2018-02-23T21:17:06.815Z,90.60
2018-02-23T21:19:33.522Z,90.80
2018-02-23T21:21:59.930Z,90.80
2018-02-23T21:24:26.298Z,91.30
2018-02-23T21:26:52.741Z,91.10
2018-02-23T21:29:19.023Z,91.70
2018-02-23T21:31:45.309Z,90.80
2018-02-23T21:34:11.659Z,90.80
2018-02-23T21:36:38.082Z,91.50
2018-02-23T21:39:12.313Z,91.20
2018-02-23T21:41:51.208Z,91.20
2018-02-23T21:44:24.552Z,91.20
2018-02-23T21:46:50.877Z,91.40
2018-02-23T21:49:18.026Z,91.00
2018-02-23T21:51:44.382Z,91.00
2018-02-23T21:54:10.785Z,91.40
2018-02-23T21:56:37.093Z,92.00
2018-02-23T21:59:04.450Z,91.70
2018-02-23T22:01:30.768Z,91.70
2018-02-23T22:03:57.101Z,92.40
2018-02-23T22:06:23.585Z,91.90
2018-02-23T22:08:50.726Z,92.80
2018-02-23T22:11:17.007Z,92.80
2018-02-23T22:13:43.284Z,92.40
2018-02-23T22:16:09.554Z,92.50
2018-02-23T22:18:35.833Z,92.80
2018-02-23T22:21:02.837Z,92.80
2018-02-23T22:23:29.060Z,92.70
2018-02-23T22:25:55.496Z,92.90
2018-02-23T22:28:21.813Z,92.90
2018-02-23T22:30:48.070Z,93.30
2018-02-23T22:33:14.354Z,93.40
2018-02-23T22:35:40.651Z,93.80
2018-02-23T22:38:07.000Z,93.80
2018-02-23T22:40:34.003Z,94.30
2018-02-23T22:43:01.079Z,94.70
2018-02-23T22:45:27.331Z,94.70
2018-02-23T22:47:54.325Z,94.70
2018-02-23T22:50:20.627Z,94.70
2018-02-23T22:52:46.892Z,95.10
2018-02-23T22:55:13.207Z,95.00
2018-02-23T22:57:39.484Z,95.10
2018-02-23T23:00:05.746Z,95.90
2018-02-23T23:02:32.077Z,95.50
2018-02-23T23:04:58.423Z,95.40
2018-02-23T23:07:24.688Z,95.20
2018-02-23T23:09:51.090Z,95.40
2018-02-23T23:12:17.386Z,95.40
2018-02-23T23:14:51.049Z,95.40
2018-02-23T23:17:17.328Z,95.60
2018-02-23T23:19:43.584Z,95.70
2018-02-23T23:22:10.644Z,95.90
2018-02-23T23:24:36.921Z,95.90
2018-02-23T23:27:03.932Z,96.00
2018-02-23T23:29:30.272Z,96.00
2018-02-23T23:31:57.223Z,96.30
2018-02-23T23:34:24.249Z,96.20
2018-02-23T23:36:50.484Z,96.50
2018-02-23T23:39:16.798Z,96.40
2018-02-23T23:41:44.305Z,96.30
2018-02-23T23:44:11.492Z,97.10
2018-02-23T23:46:37.776Z,97.00
2018-02-23T23:49:04.065Z,96.40
2018-02-23T23:51:30.322Z,96.70
2018-02-23T23:53:56.665Z,96.50
2018-02-23T23:56:22.913Z,96.70
2018-02-23T23:58:49.191Z,96.90
